createdAt,value
2019-02-15T13:45:38.991Z,15.1
2019-02-15T13:50:41.259Z,14.9
2019-02-15T13:55:43.612Z,14.9
2019-02-15T14:00:48.172Z,15
2019-02-15T14:05:48.262Z,15.1
2019-02-15T14:10:50.454Z,15.3
2019-02-15T14:15:54.034Z,15.4
2019-02-15T14:20:55.208Z,15.6
2019-02-15T14:25:57.309Z,15.9
2019-02-15T14:31:01.036Z,16
2019-02-15T14:36:01.997Z,16.1
2019-02-15T14:41:04.277Z,16
2019-02-15T14:46:06.498Z,16
2019-02-15T14:51:08.850Z,15.9
2019-02-15T14:56:11.130Z,15.8
2019-02-15T15:01:13.401Z,15.6
2019-02-15T15:06:15.780Z,15.3
2019-02-15T15:11:18.053Z,15
2019-02-15T15:16:20.260Z,14.8
2019-02-15T15:21:22.631Z,14.6
2019-02-15T15:26:24.831Z,14.4
2019-02-15T15:31:29.623Z,14.3
2019-02-15T15:36:29.580Z,14.1
2019-02-15T15:41:31.744Z,14
2019-02-15T15:46:34.054Z,13.8
2019-02-15T15:51:36.332Z,13.5
2019-02-15T15:56:38.522Z,13.3
2019-02-15T16:01:40.949Z,13.1
2019-02-15T16:16:06.304Z,12.6
2019-02-15T16:21:06.362Z,12.2
2019-02-15T16:26:08.551Z,12.1
2019-02-15T16:31:10.917Z,11.9
2019-02-15T16:36:13.206Z,11.7
2019-02-15T16:41:15.553Z,11.4
2019-02-15T16:46:19.111Z,11.2
2019-02-15T16:51:20.136Z,10.9
2019-02-15T16:56:22.396Z,10.5
2019-02-15T17:01:26.073Z,10.2
2019-02-15T17:06:27.912Z,9.8
2019-02-15T17:11:33.478Z,9.5
2019-02-15T17:16:33.010Z,9.3
2019-02-15T17:21:33.893Z,8.9
2019-02-15T17:26:37.763Z,8.7
2019-02-15T17:31:42.560Z,8.5
2019-02-15T17:36:40.672Z,8.3
2019-02-15T17:41:43.028Z,8.1
2019-02-15T17:46:45.487Z,7.9
2019-02-15T17:58:46.416Z,7.5
2019-02-15T18:03:42.512Z,7.4
2019-02-15T18:08:44.741Z,7.2
2019-02-15T18:13:47.103Z,7.1
2019-02-15T18:18:49.362Z,6.9
2019-02-15T18:23:51.740Z,6.7
2019-02-15T18:28:53.919Z,6.6
2019-02-15T18:33:56.220Z,6.4
2019-02-15T18:38:58.598Z,6.3
2019-02-15T18:44:00.899Z,6.1
2019-02-15T18:49:03.102Z,5.9
2019-02-15T18:54:05.450Z,6
2019-02-15T18:59:07.816Z,6.1
2019-02-15T19:04:11.796Z,6.2
2019-02-15T19:09:13.745Z,6.5
2019-02-15T19:14:14.730Z,6.9
2019-02-15T19:24:19.192Z,6.8
2019-02-15T19:29:21.437Z,6.7
2019-02-15T19:34:23.807Z,6.6
2019-02-15T19:39:26.122Z,6.5
2019-02-15T19:44:28.400Z,6.3
2019-02-15T19:49:38.459Z,6.3
2019-02-15T19:54:34.698Z,6.1
2019-02-15T19:59:35.205Z,6
2019-02-15T20:04:37.508Z,5.9
2019-02-15T20:09:39.883Z,5.8
2019-02-15T20:14:42.083Z,5.7
2019-02-15T20:19:48.664Z,5.8
2019-02-15T20:24:46.757Z,6
2019-02-15T20:29:49.579Z,6.1
2019-02-15T20:34:51.305Z,6.5
2019-02-15T20:39:53.927Z,6.5
2019-02-15T20:44:57.817Z,6.4
2019-02-15T20:51:50.361Z,6.3
2019-02-15T20:59:26.652Z,6.4
2019-02-15T21:04:26.848Z,6.9
2019-02-15T21:09:29.099Z,6.9
2019-02-15T21:14:31.491Z,6.5
2019-02-15T21:19:33.774Z,6.4
2019-02-15T21:24:36.074Z,6.5
2019-02-15T21:29:38.285Z,6.7
2019-02-15T21:34:41.674Z,7.1
2019-02-15T21:39:42.906Z,7.4
2019-02-15T21:44:45.205Z,7.8
2019-02-15T21:49:47.509Z,7.8
2019-02-15T21:54:49.663Z,7.7
2019-02-15T21:59:52.032Z,7.5
2019-02-15T22:04:54.327Z,7.2
2019-02-15T22:09:56.642Z,6.9
2019-02-15T22:14:59.209Z,6.6
2019-02-15T22:20:01.194Z,6.1
2019-02-15T22:25:03.496Z,5.8
2019-02-15T22:30:05.847Z,5.4
2019-02-15T22:35:08.209Z,5.2
2019-02-15T22:40:10.379Z,5
2019-02-15T22:45:12.794Z,4.9
2019-02-15T22:50:14.965Z,4.7
2019-02-15T22:55:19.182Z,4.5
2019-02-15T23:00:19.493Z,4.4
2019-02-15T23:05:21.783Z,4.3
2019-02-15T23:10:24.185Z,4.2
2019-02-15T23:15:26.389Z,4
2019-02-15T23:20:30.454Z,4
2019-02-15T23:25:32.630Z,4.1
2019-02-15T23:30:33.321Z,4.4
2019-02-15T23:35:35.656Z,4.6
2019-02-15T23:40:37.947Z,4.9
